sensor_id;sensor_type;location;lat;lon;timestamp;P1;durP1;ratioP1;P2;durP2;ratioP2
57297;SDS011;43147;50.972;18.210;2023-04-01T00:00:54;9.20;;;6.50;;
57297;SDS011;43147;50.972;18.210;2023-04-01T00:03:21;11.30;;;6.60;;
57297;SDS011;43147;50.972;18.210;2023-04-01T00:05:47;8.30;;;6.20;;
57297;SDS011;43147;50.972;18.210;2023-04-01T00:08:13;13.20;;;7.00;;
57297;SDS011;43147;50.972;18.210;2023-04-01T00:10:39;12.70;;;7.40;;
57297;SDS011;43147;50.972;18.210;2023-04-01T00:13:06;12.30;;;7.40;;
57297;SDS011;43147;50.972;18.210;2023-04-01T00:15:32;24.10;;;9.20;;
57297;SDS011;43147;50.972;18.210;2023-04-01T00:17:58;13.70;;;7.10;;
57297;SDS011;43147;50.972;18.210;2023-04-01T00:20:25;9.90;;;7.20;;
57297;SDS011;43147;50.972;18.210;2023-04-01T00:22:51;8.40;;;5.50;;
57297;SDS011;43147;50.972;18.210;2023-04-01T00:25:16;8.60;;;5.60;;
57297;SDS011;43147;50.972;18.210;2023-04-01T00:27:42;8.90;;;6.50;;
57297;SDS011;43147;50.972;18.210;2023-04-01T00:30:08;9.80;;;5.90;;
57297;SDS011;43147;50.972;18.210;2023-04-01T00:32:35;12.70;;;6.40;;
57297;SDS011;43147;50.972;18.210;2023-04-01T00:35:01;11.00;;;6.40;;
57297;SDS011;43147;50.972;18.210;2023-04-01T00:37:27;15.50;;;8.70;;
57297;SDS011;43147;50.972;18.210;2023-04-01T00:39:53;17.10;;;7.40;;
57297;SDS011;43147;50.972;18.210;2023-04-01T00:42:19;10.90;;;6.50;;
57297;SDS011;43147;50.972;18.210;2023-04-01T00:44:45;11.40;;;6.40;;
57297;SDS011;43147;50.972;18.210;2023-04-01T00:47:15;10.00;;;6.90;;
57297;SDS011;43147;50.972;18.210;2023-04-01T00:49:42;14.90;;;7.30;;
57297;SDS011;43147;50.972;18.210;2023-04-01T00:52:13;12.80;;;7.70;;
57297;SDS011;43147;50.972;18.210;2023-04-01T00:54:41;12.20;;;6.70;;
57297;SDS011;43147;50.972;18.210;2023-04-01T00:57:10;10.70;;;6.20;;
57297;SDS011;43147;50.972;18.210;2023-04-01T00:59:42;13.00;;;6.30;;
57297;SDS011;43147;50.972;18.210;2023-04-01T01:02:10;13.30;;;6.30;;
57297;SDS011;43147;50.972;18.210;2023-04-01T01:04:37;9.60;;;6.50;;
57297;SDS011;43147;50.972;18.210;2023-04-01T01:15:26;8.30;;;6.80;;
57297;SDS011;43147;50.972;18.210;2023-04-01T01:18:29;10.40;;;7.10;;
57297;SDS011;43147;50.972;18.210;2023-04-01T01:38:10;9.70;;;7.40;;
57297;SDS011;43147;50.972;18.210;2023-04-01T01:40:42;15.00;;;7.10;;
57297;SDS011;43147;50.972;18.210;2023-04-01T01:43:11;15.00;;;7.40;;
57297;SDS011;43147;50.972;18.210;2023-04-01T01:45:40;13.00;;;7.70;;
57297;SDS011;43147;50.972;18.210;2023-04-01T01:48:09;12.40;;;7.90;;
57297;SDS011;43147;50.972;18.210;2023-04-01T01:50:36;13.00;;;8.10;;
57297;SDS011;43147;50.972;18.210;2023-04-01T01:53:10;12.80;;;7.50;;
57297;SDS011;43147;50.972;18.210;2023-04-01T01:55:38;9.40;;;7.20;;
57297;SDS011;43147;50.972;18.210;2023-04-01T01:58:48;9.40;;;6.80;;
57297;SDS011;43147;50.972;18.210;2023-04-01T02:00:57;9.40;;;6.90;;
57297;SDS011;43147;50.972;18.210;2023-04-01T02:03:26;9.30;;;7.80;;
57297;SDS011;43147;50.972;18.210;2023-04-01T02:05:56;13.20;;;8.00;;
57297;SDS011;43147;50.972;18.210;2023-04-01T02:08:36;19.80;;;9.10;;
57297;SDS011;43147;50.972;18.210;2023-04-01T02:11:33;11.90;;;8.10;;
57297;SDS011;43147;50.972;18.210;2023-04-01T02:19:18;11.40;;;7.60;;
57297;SDS011;43147;50.972;18.210;2023-04-01T02:21:51;11.40;;;8.20;;
57297;SDS011;43147;50.972;18.210;2023-04-01T02:24:20;15.20;;;7.90;;
57297;SDS011;43147;50.972;18.210;2023-04-01T02:26:48;14.40;;;7.30;;
57297;SDS011;43147;50.972;18.210;2023-04-01T02:29:16;9.00;;;7.60;;
57297;SDS011;43147;50.972;18.210;2023-04-01T02:31:44;14.70;;;8.50;;
57297;SDS011;43147;50.972;18.210;2023-04-01T02:34:10;12.70;;;7.50;;
57297;SDS011;43147;50.972;18.210;2023-04-01T02:36:36;9.00;;;7.60;;
57297;SDS011;43147;50.972;18.210;2023-04-01T02:39:03;11.00;;;8.40;;
57297;SDS011;43147;50.972;18.210;2023-04-01T02:41:31;11.80;;;7.80;;
57297;SDS011;43147;50.972;18.210;2023-04-01T02:43:57;10.80;;;8.20;;
57297;SDS011;43147;50.972;18.210;2023-04-01T02:46:24;11.20;;;7.60;;
57297;SDS011;43147;50.972;18.210;2023-04-01T02:48:50;9.00;;;7.90;;
57297;SDS011;43147;50.972;18.210;2023-04-01T02:51:15;9.90;;;7.30;;
57297;SDS011;43147;50.972;18.210;2023-04-01T02:53:41;9.40;;;7.70;;
57297;SDS011;43147;50.972;18.210;2023-04-01T02:56:07;14.20;;;7.80;;
57297;SDS011;43147;50.972;18.210;2023-04-01T02:58:32;8.50;;;7.50;;
57297;SDS011;43147;50.972;18.210;2023-04-01T03:00:58;14.50;;;7.30;;
57297;SDS011;43147;50.972;18.210;2023-04-01T03:03:23;13.60;;;8.80;;
57297;SDS011;43147;50.972;18.210;2023-04-01T03:05:49;8.10;;;7.30;;
57297;SDS011;43147;50.972;18.210;2023-04-01T03:08:15;10.80;;;8.30;;
57297;SDS011;43147;50.972;18.210;2023-04-01T03:10:40;11.10;;;7.90;;
57297;SDS011;43147;50.972;18.210;2023-04-01T03:13:06;14.80;;;8.90;;
57297;SDS011;43147;50.972;18.210;2023-04-01T03:15:32;11.70;;;7.90;;
57297;SDS011;43147;50.972;18.210;2023-04-01T03:17:57;15.60;;;7.70;;
57297;SDS011;43147;50.972;18.210;2023-04-01T03:20:23;10.80;;;7.60;;
57297;SDS011;43147;50.972;18.210;2023-04-01T03:22:48;13.40;;;7.30;;
57297;SDS011;43147;50.972;18.210;2023-04-01T03:25:14;8.30;;;6.70;;
57297;SDS011;43147;50.972;18.210;2023-04-01T03:27:40;8.00;;;7.20;;
57297;SDS011;43147;50.972;18.210;2023-04-01T03:30:06;10.20;;;6.20;;
57297;SDS011;43147;50.972;18.210;2023-04-01T03:32:32;8.70;;;6.90;;
57297;SDS011;43147;50.972;18.210;2023-04-01T03:34:57;10.40;;;7.50;;
57297;SDS011;43147;50.972;18.210;2023-04-01T03:37:23;12.30;;;7.50;;
57297;SDS011;43147;50.972;18.210;2023-04-01T03:39:49;15.00;;;7.80;;
57297;SDS011;43147;50.972;18.210;2023-04-01T03:42:15;14.40;;;7.10;;
57297;SDS011;43147;50.972;18.210;2023-04-01T03:44:41;12.10;;;7.00;;
57297;SDS011;43147;50.972;18.210;2023-04-01T03:47:07;10.10;;;7.60;;
57297;SDS011;43147;50.972;18.210;2023-04-01T03:49:34;11.30;;;6.70;;
57297;SDS011;43147;50.972;18.210;2023-04-01T03:52:00;12.80;;;7.40;;
57297;SDS011;43147;50.972;18.210;2023-04-01T03:54:25;13.10;;;7.70;;
57297;SDS011;43147;50.972;18.210;2023-04-01T03:56:51;9.90;;;7.00;;
57297;SDS011;43147;50.972;18.210;2023-04-01T03:59:16;9.50;;;7.00;;
57297;SDS011;43147;50.972;18.210;2023-04-01T04:01:42;9.10;;;6.70;;
57297;SDS011;43147;50.972;18.210;2023-04-01T04:04:10;9.60;;;7.10;;
57297;SDS011;43147;50.972;18.210;2023-04-01T04:06:38;13.30;;;7.10;;
57297;SDS011;43147;50.972;18.210;2023-04-01T04:09:03;8.10;;;7.00;;
57297;SDS011;43147;50.972;18.210;2023-04-01T04:11:29;9.40;;;6.70;;
57297;SDS011;43147;50.972;18.210;2023-04-01T04:13:56;12.10;;;6.70;;
57297;SDS011;43147;50.972;18.210;2023-04-01T04:16:21;11.20;;;7.20;;
57297;SDS011;43147;50.972;18.210;2023-04-01T04:18:47;8.10;;;7.20;;
57297;SDS011;43147;50.972;18.210;2023-04-01T04:21:13;7.90;;;7.10;;
57297;SDS011;43147;50.972;18.210;2023-04-01T04:23:39;15.80;;;7.80;;
57297;SDS011;43147;50.972;18.210;2023-04-01T04:26:06;9.50;;;7.70;;
57297;SDS011;43147;50.972;18.210;2023-04-01T04:28:33;10.30;;;7.40;;
57297;SDS011;43147;50.972;18.210;2023-04-01T04:30:59;13.80;;;7.30;;
57297;SDS011;43147;50.972;18.210;2023-04-01T04:33:25;8.60;;;7.00;;
57297;SDS011;43147;50.972;18.210;2023-04-01T04:35:51;12.20;;;7.30;;
57297;SDS011;43147;50.972;18.210;2023-04-01T04:38:19;10.80;;;6.80;;
57297;SDS011;43147;50.972;18.210;2023-04-01T04:40:45;8.60;;;6.50;;
57297;SDS011;43147;50.972;18.210;2023-04-01T04:43:12;13.80;;;7.90;;
57297;SDS011;43147;50.972;18.210;2023-04-01T04:45:38;10.80;;;8.00;;
57297;SDS011;43147;50.972;18.210;2023-04-01T04:48:05;8.20;;;6.80;;
57297;SDS011;43147;50.972;18.210;2023-04-01T04:50:32;8.60;;;7.50;;
57297;SDS011;43147;50.972;18.210;2023-04-01T04:53:00;10.40;;;7.30;;
57297;SDS011;43147;50.972;18.210;2023-04-01T04:55:26;14.30;;;7.70;;
57297;SDS011;43147;50.972;18.210;2023-04-01T04:57:52;14.40;;;7.60;;
57297;SDS011;43147;50.972;18.210;2023-04-01T05:00:18;10.00;;;7.10;;
57297;SDS011;43147;50.972;18.210;2023-04-01T05:02:43;9.70;;;6.80;;
57297;SDS011;43147;50.972;18.210;2023-04-01T05:05:09;11.70;;;6.80;;
57297;SDS011;43147;50.972;18.210;2023-04-01T05:07:35;10.10;;;7.80;;
57297;SDS011;43147;50.972;18.210;2023-04-01T05:10:01;16.50;;;8.10;;
57297;SDS011;43147;50.972;18.210;2023-04-01T05:12:26;9.90;;;7.10;;
57297;SDS011;43147;50.972;18.210;2023-04-01T05:14:52;9.50;;;6.70;;
57297;SDS011;43147;50.972;18.210;2023-04-01T05:17:17;13.90;;;6.50;;
57297;SDS011;43147;50.972;18.210;2023-04-01T05:19:43;10.70;;;6.80;;
57297;SDS011;43147;50.972;18.210;2023-04-01T05:22:09;8.90;;;7.60;;
57297;SDS011;43147;50.972;18.210;2023-04-01T05:24:35;11.00;;;7.10;;
57297;SDS011;43147;50.972;18.210;2023-04-01T05:27:00;14.50;;;6.90;;
57297;SDS011;43147;50.972;18.210;2023-04-01T05:29:26;11.70;;;7.30;;
57297;SDS011;43147;50.972;18.210;2023-04-01T05:31:54;7.00;;;5.80;;
57297;SDS011;43147;50.972;18.210;2023-04-01T05:34:20;8.60;;;6.50;;
57297;SDS011;43147;50.972;18.210;2023-04-01T05:36:45;8.70;;;6.70;;
57297;SDS011;43147;50.972;18.210;2023-04-01T05:39:11;10.10;;;6.80;;
57297;SDS011;43147;50.972;18.210;2023-04-01T05:41:37;12.80;;;7.90;;
57297;SDS011;43147;50.972;18.210;2023-04-01T05:44:04;8.80;;;7.10;;
57297;SDS011;43147;50.972;18.210;2023-04-01T05:46:30;7.60;;;6.80;;
57297;SDS011;43147;50.972;18.210;2023-04-01T05:48:56;11.80;;;6.20;;
57297;SDS011;43147;50.972;18.210;2023-04-01T05:51:22;8.60;;;6.20;;
57297;SDS011;43147;50.972;18.210;2023-04-01T05:53:47;9.10;;;5.80;;
57297;SDS011;43147;50.972;18.210;2023-04-01T05:56:14;7.90;;;6.20;;
57297;SDS011;43147;50.972;18.210;2023-04-01T05:58:39;12.00;;;7.20;;
57297;SDS011;43147;50.972;18.210;2023-04-01T06:01:06;10.80;;;7.30;;
57297;SDS011;43147;50.972;18.210;2023-04-01T06:03:34;8.20;;;6.70;;
57297;SDS011;43147;50.972;18.210;2023-04-01T06:06:00;9.60;;;6.50;;
57297;SDS011;43147;50.972;18.210;2023-04-01T06:08:26;12.60;;;7.50;;
57297;SDS011;43147;50.972;18.210;2023-04-01T06:11:15;8.40;;;6.70;;
57297;SDS011;43147;50.972;18.210;2023-04-01T06:16:11;8.50;;;6.40;;
57297;SDS011;43147;50.972;18.210;2023-04-01T06:32:56;11.40;;;5.80;;
57297;SDS011;43147;50.972;18.210;2023-04-01T06:35:27;7.70;;;5.20;;
57297;SDS011;43147;50.972;18.210;2023-04-01T06:58:29;6.60;;;4.20;;
57297;SDS011;43147;50.972;18.210;2023-04-01T07:01:00;7.60;;;3.60;;
57297;SDS011;43147;50.972;18.210;2023-04-01T07:03:41;6.20;;;3.90;;
57297;SDS011;43147;50.972;18.210;2023-04-01T07:06:24;3.90;;;3.30;;
57297;SDS011;43147;50.972;18.210;2023-04-01T07:09:03;6.00;;;4.80;;
57297;SDS011;43147;50.972;18.210;2023-04-01T07:11:33;3.60;;;3.30;;
57297;SDS011;43147;50.972;18.210;2023-04-01T07:14:01;8.50;;;3.80;;
57297;SDS011;43147;50.972;18.210;2023-04-01T07:16:31;11.60;;;5.90;;
57297;SDS011;43147;50.972;18.210;2023-04-01T07:19:01;7.10;;;3.90;;
57297;SDS011;43147;50.972;18.210;2023-04-01T07:21:40;5.60;;;3.90;;
57297;SDS011;43147;50.972;18.210;2023-04-01T07:24:13;5.30;;;4.20;;
57297;SDS011;43147;50.972;18.210;2023-04-01T07:26:42;6.60;;;4.70;;
57297;SDS011;43147;50.972;18.210;2023-04-01T07:29:12;7.70;;;4.40;;
57297;SDS011;43147;50.972;18.210;2023-04-01T07:34:19;6.20;;;4.40;;
57297;SDS011;43147;50.972;18.210;2023-04-01T07:51:17;5.90;;;4.80;;
57297;SDS011;43147;50.972;18.210;2023-04-01T07:53:49;5.80;;;4.10;;
57297;SDS011;43147;50.972;18.210;2023-04-01T07:56:24;10.30;;;5.00;;
57297;SDS011;43147;50.972;18.210;2023-04-01T08:01:49;4.30;;;3.50;;
57297;SDS011;43147;50.972;18.210;2023-04-01T08:07:22;5.10;;;3.10;;
57297;SDS011;43147;50.972;18.210;2023-04-01T08:15:12;4.70;;;2.50;;
57297;SDS011;43147;50.972;18.210;2023-04-01T08:23:25;3.90;;;2.70;;
57297;SDS011;43147;50.972;18.210;2023-04-01T08:28:37;5.90;;;2.20;;
57297;SDS011;43147;50.972;18.210;2023-04-01T08:31:26;4.90;;;2.70;;
57297;SDS011;43147;50.972;18.210;2023-04-01T08:33:56;4.10;;;3.10;;
57297;SDS011;43147;50.972;18.210;2023-04-01T08:36:23;7.30;;;4.90;;
57297;SDS011;43147;50.972;18.210;2023-04-01T08:39:06;6.50;;;4.10;;
57297;SDS011;43147;50.972;18.210;2023-04-01T08:50:01;8.60;;;4.50;;
57297;SDS011;43147;50.972;18.210;2023-04-01T08:52:48;6.00;;;3.80;;
57297;SDS011;43147;50.972;18.210;2023-04-01T09:00:48;13.10;;;9.10;;
57297;SDS011;43147;50.972;18.210;2023-04-01T09:37:16;4.80;;;3.70;;
57297;SDS011;43147;50.972;18.210;2023-04-01T09:42:24;6.60;;;4.80;;
57297;SDS011;43147;50.972;18.210;2023-04-01T09:44:59;4.80;;;4.20;;
57297;SDS011;43147;50.972;18.210;2023-04-01T09:47:29;5.00;;;4.50;;
57297;SDS011;43147;50.972;18.210;2023-04-01T10:12:36;5.90;;;5.40;;
57297;SDS011;43147;50.972;18.210;2023-04-01T10:26:38;6.10;;;5.20;;
57297;SDS011;43147;50.972;18.210;2023-04-01T10:43:36;7.30;;;5.70;;
57297;SDS011;43147;50.972;18.210;2023-04-01T10:57:02;4.20;;;3.70;;
57297;SDS011;43147;50.972;18.210;2023-04-01T11:32:42;4.60;;;3.30;;
57297;SDS011;43147;50.972;18.210;2023-04-01T11:43:11;4.10;;;3.60;;
57297;SDS011;43147;50.972;18.210;2023-04-01T11:45:43;4.60;;;3.80;;
57297;SDS011;43147;50.972;18.210;2023-04-01T11:48:24;4.10;;;3.80;;
57297;SDS011;43147;50.972;18.210;2023-04-01T11:53:47;4.50;;;4.00;;
57297;SDS011;43147;50.972;18.210;2023-04-01T12:01:41;5.20;;;4.30;;
57297;SDS011;43147;50.972;18.210;2023-04-01T12:17:50;9.60;;;6.70;;
57297;SDS011;43147;50.972;18.210;2023-04-01T12:29:16;9.20;;;7.90;;
57297;SDS011;43147;50.972;18.210;2023-04-01T12:34:45;9.70;;;6.90;;
57297;SDS011;43147;50.972;18.210;2023-04-01T12:56:37;6.20;;;5.50;;
57297;SDS011;43147;50.972;18.210;2023-04-01T12:59:26;5.50;;;4.90;;
57297;SDS011;43147;50.972;18.210;2023-04-01T13:07:26;4.70;;;4.30;;
57297;SDS011;43147;50.972;18.210;2023-04-01T13:10:01;4.80;;;4.40;;
57297;SDS011;43147;50.972;18.210;2023-04-01T13:15:28;5.60;;;4.90;;
57297;SDS011;43147;50.972;18.210;2023-04-01T13:31:36;5.10;;;4.00;;
57297;SDS011;43147;50.972;18.210;2023-04-01T13:34:23;5.60;;;4.30;;
57297;SDS011;43147;50.972;18.210;2023-04-01T13:44:42;5.20;;;3.80;;
57297;SDS011;43147;50.972;18.210;2023-04-01T14:09:34;4.10;;;3.70;;
57297;SDS011;43147;50.972;18.210;2023-04-01T14:17:30;3.90;;;3.50;;
57297;SDS011;43147;50.972;18.210;2023-04-01T14:25:34;5.50;;;3.80;;
57297;SDS011;43147;50.972;18.210;2023-04-01T14:49:30;3.60;;;2.60;;
57297;SDS011;43147;50.972;18.210;2023-04-01T14:52:33;3.40;;;2.80;;
57297;SDS011;43147;50.972;18.210;2023-04-01T14:54:56;4.00;;;3.30;;
57297;SDS011;43147;50.972;18.210;2023-04-01T14:57:30;8.10;;;4.80;;
57297;SDS011;43147;50.972;18.210;2023-04-01T15:00:01;9.00;;;5.10;;
57297;SDS011;43147;50.972;18.210;2023-04-01T15:05:35;7.60;;;4.50;;
57297;SDS011;43147;50.972;18.210;2023-04-01T15:10:43;5.80;;;3.60;;
57297;SDS011;43147;50.972;18.210;2023-04-01T15:24:24;7.20;;;3.90;;
57297;SDS011;43147;50.972;18.210;2023-04-01T15:34:59;16.40;;;5.40;;
57297;SDS011;43147;50.972;18.210;2023-04-01T15:37:37;18.00;;;6.50;;
57297;SDS011;43147;50.972;18.210;2023-04-01T15:42:47;31.10;;;11.90;;
57297;SDS011;43147;50.972;18.210;2023-04-01T15:45:26;21.10;;;9.30;;
57297;SDS011;43147;50.972;18.210;2023-04-01T16:03:00;12.60;;;7.20;;
57297;SDS011;43147;50.972;18.210;2023-04-01T16:05:42;12.30;;;7.90;;
57297;SDS011;43147;50.972;18.210;2023-04-01T16:08:29;13.70;;;9.40;;
57297;SDS011;43147;50.972;18.210;2023-04-01T16:11:12;13.30;;;8.10;;
57297;SDS011;43147;50.972;18.210;2023-04-01T16:13:46;15.60;;;8.90;;
57297;SDS011;43147;50.972;18.210;2023-04-01T16:23:55;21.10;;;13.70;;
57297;SDS011;43147;50.972;18.210;2023-04-01T16:29:37;16.00;;;11.00;;
57297;SDS011;43147;50.972;18.210;2023-04-01T16:32:29;16.30;;;9.60;;
57297;SDS011;43147;50.972;18.210;2023-04-01T16:38:09;12.00;;;8.50;;
57297;SDS011;43147;50.972;18.210;2023-04-01T16:43:25;17.50;;;9.30;;
57297;SDS011;43147;50.972;18.210;2023-04-01T16:51:48;26.10;;;11.40;;
57297;SDS011;43147;50.972;18.210;2023-04-01T16:54:45;21.20;;;11.30;;
57297;SDS011;43147;50.972;18.210;2023-04-01T16:57:21;24.60;;;12.70;;
57297;SDS011;43147;50.972;18.210;2023-04-01T17:02:36;20.70;;;14.00;;
57297;SDS011;43147;50.972;18.210;2023-04-01T17:05:04;22.70;;;15.20;;
57297;SDS011;43147;50.972;18.210;2023-04-01T17:10:02;23.50;;;13.70;;
57297;SDS011;43147;50.972;18.210;2023-04-01T17:12:40;18.70;;;14.00;;
57297;SDS011;43147;50.972;18.210;2023-04-01T17:21:38;19.30;;;13.30;;
57297;SDS011;43147;50.972;18.210;2023-04-01T17:26:51;29.80;;;17.50;;
57297;SDS011;43147;50.972;18.210;2023-04-01T17:35:12;35.50;;;21.10;;
57297;SDS011;43147;50.972;18.210;2023-04-01T17:38:19;40.90;;;25.80;;
57297;SDS011;43147;50.972;18.210;2023-04-01T17:43:46;33.50;;;19.80;;
57297;SDS011;43147;50.972;18.210;2023-04-01T17:51:43;57.00;;;29.00;;
57297;SDS011;43147;50.972;18.210;2023-04-01T17:59:37;90.20;;;45.30;;
57297;SDS011;43147;50.972;18.210;2023-04-01T18:13:23;62.20;;;37.10;;
57297;SDS011;43147;50.972;18.210;2023-04-01T18:16:29;59.80;;;36.60;;
57297;SDS011;43147;50.972;18.210;2023-04-01T18:19:15;73.20;;;39.60;;
57297;SDS011;43147;50.972;18.210;2023-04-01T18:21:49;58.50;;;31.50;;
57297;SDS011;43147;50.972;18.210;2023-04-01T18:27:18;66.40;;;36.70;;
57297;SDS011;43147;50.972;18.210;2023-04-01T18:29:54;52.20;;;30.10;;
57297;SDS011;43147;50.972;18.210;2023-04-01T18:38:25;44.30;;;26.90;;
57297;SDS011;43147;50.972;18.210;2023-04-01T18:43:59;56.80;;;31.00;;
57297;SDS011;43147;50.972;18.210;2023-04-01T18:46:45;54.70;;;30.70;;
57297;SDS011;43147;50.972;18.210;2023-04-01T18:49:25;51.90;;;31.20;;
57297;SDS011;43147;50.972;18.210;2023-04-01T18:51:57;63.20;;;34.70;;
57297;SDS011;43147;50.972;18.210;2023-04-01T18:54:31;49.80;;;30.00;;
57297;SDS011;43147;50.972;18.210;2023-04-01T18:57:16;52.70;;;30.50;;
57297;SDS011;43147;50.972;18.210;2023-04-01T18:59:53;72.90;;;38.30;;
57297;SDS011;43147;50.972;18.210;2023-04-01T19:15:31;81.30;;;40.20;;
57297;SDS011;43147;50.972;18.210;2023-04-01T19:20:55;55.00;;;27.60;;
57297;SDS011;43147;50.972;18.210;2023-04-01T19:26:10;91.70;;;41.00;;
57297;SDS011;43147;50.972;18.210;2023-04-01T19:39:04;80.00;;;40.80;;
57297;SDS011;43147;50.972;18.210;2023-04-01T19:41:47;86.40;;;43.70;;
57297;SDS011;43147;50.972;18.210;2023-04-01T19:52:41;59.10;;;29.90;;
57297;SDS011;43147;50.972;18.210;2023-04-01T19:58:00;53.40;;;29.40;;
57297;SDS011;43147;50.972;18.210;2023-04-01T20:00:30;48.80;;;27.60;;
57297;SDS011;43147;50.972;18.210;2023-04-01T20:10:43;48.50;;;27.20;;
57297;SDS011;43147;50.972;18.210;2023-04-01T20:15:45;51.50;;;27.80;;
57297;SDS011;43147;50.972;18.210;2023-04-01T20:20:38;50.90;;;29.40;;
57297;SDS011;43147;50.972;18.210;2023-04-01T20:25:43;55.70;;;30.00;;
57297;SDS011;43147;50.972;18.210;2023-04-01T20:28:25;52.60;;;29.40;;
57297;SDS011;43147;50.972;18.210;2023-04-01T20:45:18;55.00;;;26.70;;
57297;SDS011;43147;50.972;18.210;2023-04-01T20:52:56;52.60;;;25.50;;
57297;SDS011;43147;50.972;18.210;2023-04-01T20:55:53;52.00;;;26.80;;
57297;SDS011;43147;50.972;18.210;2023-04-01T21:17:39;55.30;;;28.30;;
57297;SDS011;43147;50.972;18.210;2023-04-01T21:23:03;50.60;;;27.00;;
57297;SDS011;43147;50.972;18.210;2023-04-01T21:57:26;42.10;;;23.60;;
57297;SDS011;43147;50.972;18.210;2023-04-01T22:00:09;36.60;;;19.60;;
57297;SDS011;43147;50.972;18.210;2023-04-01T22:11:01;46.80;;;23.50;;
57297;SDS011;43147;50.972;18.210;2023-04-01T22:13:52;35.90;;;21.10;;
57297;SDS011;43147;50.972;18.210;2023-04-01T22:19:11;29.20;;;16.20;;
57297;SDS011;43147;50.972;18.210;2023-04-01T22:27:52;20.80;;;13.90;;
57297;SDS011;43147;50.972;18.210;2023-04-01T22:30:23;45.90;;;22.00;;
57297;SDS011;43147;50.972;18.210;2023-04-01T22:32:58;44.30;;;21.20;;
57297;SDS011;43147;50.972;18.210;2023-04-01T22:36:09;46.50;;;21.00;;
57297;SDS011;43147;50.972;18.210;2023-04-01T22:43:55;34.00;;;19.40;;
57297;SDS011;43147;50.972;18.210;2023-04-01T22:49:22;45.80;;;21.20;;
57297;SDS011;43147;50.972;18.210;2023-04-01T22:52:08;38.20;;;18.60;;
57297;SDS011;43147;50.972;18.210;2023-04-01T22:57:48;38.10;;;20.80;;
57297;SDS011;43147;50.972;18.210;2023-04-01T23:00:21;43.10;;;23.90;;
57297;SDS011;43147;50.972;18.210;2023-04-01T23:03:02;38.20;;;22.10;;
57297;SDS011;43147;50.972;18.210;2023-04-01T23:05:41;39.90;;;21.80;;
57297;SDS011;43147;50.972;18.210;2023-04-01T23:11:14;37.30;;;21.40;;
57297;SDS011;43147;50.972;18.210;2023-04-01T23:13:46;30.00;;;17.60;;
57297;SDS011;43147;50.972;18.210;2023-04-01T23:16:23;39.80;;;20.00;;
57297;SDS011;43147;50.972;18.210;2023-04-01T23:19:15;28.50;;;17.00;;
57297;SDS011;43147;50.972;18.210;2023-04-01T23:21:59;43.80;;;21.30;;
57297;SDS011;43147;50.972;18.210;2023-04-01T23:27:17;30.50;;;19.00;;
57297;SDS011;43147;50.972;18.210;2023-04-01T23:29:48;42.80;;;23.90;;
57297;SDS011;43147;50.972;18.210;2023-04-01T23:32:18;37.10;;;19.50;;
57297;SDS011;43147;50.972;18.210;2023-04-01T23:34:49;50.40;;;24.00;;
57297;SDS011;43147;50.972;18.210;2023-04-01T23:37:16;33.20;;;18.60;;
57297;SDS011;43147;50.972;18.210;2023-04-01T23:40:02;34.60;;;20.20;;
57297;SDS011;43147;50.972;18.210;2023-04-01T23:42:31;29.50;;;17.70;;
57297;SDS011;43147;50.972;18.210;2023-04-01T23:45:03;33.90;;;20.30;;
57297;SDS011;43147;50.972;18.210;2023-04-01T23:47:35;35.10;;;18.70;;
57297;SDS011;43147;50.972;18.210;2023-04-01T23:50:13;31.60;;;17.50;;
57297;SDS011;43147;50.972;18.210;2023-04-01T23:52:48;35.10;;;19.60;;
57297;SDS011;43147;50.972;18.210;2023-04-01T23:55:27;27.60;;;15.80;;
